Time;durP1;ratioP1;P1;durP2;ratioP2;P2;SDS_P1;SDS_P2;PMS_P1;PMS_P2;Temp;Humidity;BMP_temperature;BMP_pressure;BME280_temperature;BME280_humidity;BME280_pressure;Samples;Min_cycle;Max_cycle;Signal;HPM_P1;HPM_P2
2023/01/06 00:00:30;;;;;;;15.40;8.70;;;;;;;;;;5041358;28;20068;-71
2023/01/06 00:02:56;;;;;;;11.82;7.03;;;;;;;;;;5050573;28;20040;-69
2023/01/06 00:05:23;;;;;;;33.13;18.13;;;;;;;;;;5044427;28;20068;-70
2023/01/06 00:07:50;;;;;;;13.63;11.30;;;;;;;;;;5045594;28;20430;-70
2023/01/06 00:10:17;;;;;;;14.18;7.88;;;;;;;;;;5042021;28;20037;-70
2023/01/06 00:12:44;;;;;;;17.63;9.13;;;;;;;;;;5051889;28;20080;-70
2023/01/06 00:15:11;;;;;;;14.15;8.10;;;;;;;;;;5039006;28;20602;-70
2023/01/06 00:17:38;;;;;;;18.85;9.48;;;;;;;;;;5050360;28;20037;-70
2023/01/06 00:20:05;;;;;;;17.15;9.05;;;;;;;;;;5041874;28;20166;-70
2023/01/06 00:22:32;;;;;;;13.75;8.25;;;;;;;;;;5047448;28;21090;-69
2023/01/06 00:24:58;;;;;;;14.85;8.70;;;;;;;;;;5050625;28;20121;-70
2023/01/06 00:27:25;;;;;;;16.50;9.75;;;;;;;;;;5047879;28;20106;-70
2023/01/06 00:29:51;;;;;;;15.43;9.85;;;;;;;;;;5045594;28;21288;-69
2023/01/06 00:32:18;;;;;;;17.58;12.38;;;;;;;;;;5039084;28;20040;-68
2023/01/06 00:34:45;;;;;;;14.75;9.23;;;;;;;;;;5050782;28;20060;-68
2023/01/06 00:37:11;;;;;;;17.10;9.15;;;;;;;;;;5045222;28;20065;-69
2023/01/06 00:39:38;;;;;;;14.80;8.45;;;;;;;;;;5044204;28;20701;-69
2023/01/06 00:42:05;;;;;;;16.42;7.60;;;;;;;;;;5038240;28;20060;-69
2023/01/06 00:44:36;;;;;;;18.98;10.98;;;;;;;;;;5048486;28;20034;-68
2023/01/06 00:47:05;;;;;;;14.90;8.60;;;;;;;;;;5038898;28;20033;-68
2023/01/06 00:49:32;;;;;;;15.50;8.10;;;;;;;;;;5045050;28;20052;-69
2023/01/06 00:51:59;;;;;;;15.90;8.35;;;;;;;;;;5045526;28;20049;-69
2023/01/06 00:54:26;;;;;;;14.48;8.13;;;;;;;;;;5044420;28;20060;-69
2023/01/06 00:56:53;;;;;;;12.77;6.47;;;;;;;;;;5041227;28;20502;-69
2023/01/06 00:59:23;;;;;;;11.30;8.00;;;;;;;;;;5042739;28;20041;-69
2023/01/06 01:01:51;;;;;;;12.55;7.72;;;;;;;;;;5041550;28;20973;-69
2023/01/06 01:04:18;;;;;;;15.65;8.38;;;;;;;;;;5040365;28;20059;-69
2023/01/06 01:06:46;;;;;;;12.88;7.60;;;;;;;;;;5043675;28;20045;-68
2023/01/06 01:09:16;;;;;;;14.27;9.45;;;;;;;;;;5040561;28;20116;-68
2023/01/06 01:14:28;;;;;;;15.02;8.13;;;;;;;;;;5035984;28;20106;-69
2023/01/06 01:16:54;;;;;;;12.55;7.30;;;;;;;;;;5040689;28;20041;-69
2023/01/06 01:19:22;;;;;;;12.63;7.72;;;;;;;;;;5039712;28;20063;-68
2023/01/06 01:21:49;;;;;;;15.60;8.27;;;;;;;;;;5051878;28;20049;-68
2023/01/06 01:24:16;;;;;;;15.95;9.63;;;;;;;;;;5048773;28;20040;-68
2023/01/06 01:26:42;;;;;;;17.30;8.88;;;;;;;;;;5040948;28;20575;-69
2023/01/06 01:29:10;;;;;;;14.43;9.10;;;;;;;;;;5040035;28;20126;-69
2023/01/06 01:31:37;;;;;;;13.88;9.75;;;;;;;;;;5045042;28;20048;-69
2023/01/06 01:34:03;;;;;;;13.35;8.63;;;;;;;;;;5041679;28;20425;-69
2023/01/06 01:36:30;;;;;;;12.52;7.55;;;;;;;;;;5040079;28;20036;-69
2023/01/06 01:38:57;;;;;;;14.88;9.65;;;;;;;;;;5041632;28;20110;-69
2023/01/06 01:41:24;;;;;;;13.32;8.50;;;;;;;;;;5041652;28;20713;-69
2023/01/06 01:43:51;;;;;;;11.82;7.47;;;;;;;;;;5044762;28;20067;-70
2023/01/06 01:46:24;;;;;;;13.80;7.65;;;;;;;;;;5044123;28;20059;-70
2023/01/06 01:48:51;;;;;;;18.15;9.20;;;;;;;;;;5038890;28;20083;-70
2023/01/06 01:51:20;;;;;;;19.13;9.00;;;;;;;;;;5037753;28;20049;-70
2023/01/06 01:53:50;;;;;;;15.38;8.70;;;;;;;;;;5043248;28;20056;-68
2023/01/06 01:56:20;;;;;;;15.10;9.70;;;;;;;;;;5039342;28;20037;-69
2023/01/06 01:58:53;;;;;;;13.63;8.27;;;;;;;;;;5041766;28;20049;-69
2023/01/06 02:01:19;;;;;;;14.63;8.93;;;;;;;;;;5038372;28;20430;-69
2023/01/06 02:03:46;;;;;;;17.00;9.90;;;;;;;;;;5038562;28;20072;-69
2023/01/06 02:06:17;;;;;;;13.13;8.90;;;;;;;;;;5039090;28;20732;-69
2023/01/06 02:08:46;;;;;;;15.40;10.25;;;;;;;;;;5041377;28;20059;-69
2023/01/06 02:11:13;;;;;;;15.63;9.73;;;;;;;;;;5042766;28;20029;-69
2023/01/06 02:13:41;;;;;;;13.85;9.52;;;;;;;;;;5038468;28;20517;-69
2023/01/06 02:16:29;;;;;;;16.30;10.82;;;;;;;;;;5043373;28;20033;-69
2023/01/06 02:19:04;;;;;;;18.48;8.98;;;;;;;;;;5040624;28;20156;-69
2023/01/06 02:21:40;;;;;;;18.52;14.00;;;;;;;;;;5049291;28;20617;-70
2023/01/06 02:24:10;;;;;;;13.55;8.18;;;;;;;;;;5046787;28;20041;-69
2023/01/06 02:26:54;;;;;;;13.43;7.65;;;;;;;;;;5045792;28;20036;-69
2023/01/06 02:29:21;;;;;;;13.18;8.73;;;;;;;;;;5041605;28;20052;-69
2023/01/06 02:32:00;;;;;;;13.90;8.02;;;;;;;;;;5051603;28;20049;-71
2023/01/06 02:34:30;;;;;;;14.75;9.25;;;;;;;;;;5037496;28;20135;-70
2023/01/06 02:37:00;;;;;;;19.58;9.30;;;;;;;;;;5045178;28;20048;-71
2023/01/06 02:39:28;;;;;;;15.90;8.25;;;;;;;;;;5038235;28;20045;-68
2023/01/06 02:41:58;;;;;;;14.07;8.80;;;;;;;;;;5040541;28;20072;-69
2023/01/06 02:44:31;;;;;;;16.20;8.95;;;;;;;;;;5036678;28;20049;-71
2023/01/06 02:47:10;;;;;;;15.93;9.32;;;;;;;;;;5049846;28;20055;-70
2023/01/06 02:49:38;;;;;;;14.75;8.48;;;;;;;;;;5038418;28;20040;-69
2023/01/06 02:52:16;;;;;;;13.95;9.88;;;;;;;;;;5044936;28;20140;-70
2023/01/06 02:54:51;;;;;;;13.18;9.00;;;;;;;;;;5045439;28;20182;-70
2023/01/06 02:57:17;;;;;;;16.15;9.55;;;;;;;;;;5038861;28;20071;-70
2023/01/06 02:59:52;;;;;;;15.60;10.45;;;;;;;;;;5045560;28;20139;-69
2023/01/06 03:02:19;;;;;;;19.00;10.10;;;;;;;;;;5044244;28;20037;-70
2023/01/06 03:04:47;;;;;;;17.48;11.48;;;;;;;;;;5038204;28;20536;-69
2023/01/06 03:07:17;;;;;;;13.88;8.20;;;;;;;;;;5038214;28;20045;-69
2023/01/06 03:09:45;;;;;;;13.35;8.23;;;;;;;;;;5044812;28;20237;-69
2023/01/06 03:12:26;;;;;;;13.85;8.68;;;;;;;;;;5047469;28;20040;-69
2023/01/06 03:14:55;;;;;;;15.05;7.78;;;;;;;;;;5048635;28;20041;-69
2023/01/06 03:17:22;;;;;;;;;;;;;;;;;;5044019;28;20041;-68
2023/01/06 03:19:49;;;;;;;13.13;7.90;;;;;;;;;;5044140;28;19932;-68
2023/01/06 03:22:16;;;;;;;12.20;8.35;;;;;;;;;;5046271;28;20037;-69
2023/01/06 03:24:44;;;;;;;13.63;7.90;;;;;;;;;;5050293;28;20041;-68
2023/01/06 03:27:11;;;;;;;16.88;8.63;;;;;;;;;;5042864;28;20057;-68
2023/01/06 03:29:39;;;;;;;16.67;10.27;;;;;;;;;;5048185;28;20044;-70
2023/01/06 03:32:07;;;;;;;;;;;;;;;;;;5040999;28;20044;-69
2023/01/06 03:34:41;;;;;;;13.18;7.18;;;;;;;;;;5048439;28;20027;-69
2023/01/06 03:37:07;;;;;;;12.13;9.35;;;;;;;;;;5047345;28;20120;-70
2023/01/06 03:39:48;;;;;;;12.73;11.20;;;;;;;;;;5040627;28;20041;-68
2023/01/06 03:45:17;;;;;;;11.70;7.88;;;;;;;;;;5040761;28;20029;-69
2023/01/06 03:47:46;;;;;;;10.60;7.00;;;;;;;;;;5042379;28;20049;-69
2023/01/06 03:50:30;;;;;;;11.93;7.53;;;;;;;;;;5047786;28;20124;-69
2023/01/06 03:53:20;;;;;;;12.18;7.00;;;;;;;;;;5043829;28;20259;-69
2023/01/06 03:55:50;;;;;;;11.00;6.80;;;;;;;;;;5042379;28;20100;-70
2023/01/06 03:58:18;;;;;;;13.48;7.50;;;;;;;;;;5045490;28;20048;-69
2023/01/06 04:00:47;;;;;;;14.48;7.70;;;;;;;;;;5040453;28;20060;-69
2023/01/06 04:03:15;;;;;;;10.50;6.95;;;;;;;;;;5046648;28;20056;-68
2023/01/06 04:05:43;;;;;;;13.13;6.93;;;;;;;;;;5047303;28;20079;-71
2023/01/06 04:08:10;;;;;;;9.93;6.13;;;;;;;;;;5048637;28;20079;-68
2023/01/06 04:10:39;;;;;;;9.48;6.65;;;;;;;;;;5045760;28;20037;-68
2023/01/06 04:13:06;;;;;;;12.23;10.48;;;;;;;;;;5044865;28;20568;-69
2023/01/06 04:15:33;;;;;;;8.43;5.28;;;;;;;;;;5038515;28;20048;-69
2023/01/06 04:18:04;;;;;;;8.07;5.32;;;;;;;;;;5029927;28;20041;-69
2023/01/06 04:20:33;;;;;;;9.80;6.45;;;;;;;;;;5038979;28;20048;-67
2023/01/06 04:23:08;;;;;;;10.75;8.38;;;;;;;;;;5042398;28;20433;-68
2023/01/06 04:25:38;;;;;;;10.60;5.55;;;;;;;;;;5046772;28;20061;-68
2023/01/06 04:28:12;;;;;;;9.43;5.57;;;;;;;;;;5040943;28;20045;-68
2023/01/06 04:30:39;;;;;;;10.80;6.22;;;;;;;;;;5028964;28;20087;-69
2023/01/06 04:33:06;;;;;;;13.88;6.18;;;;;;;;;;5041794;28;20044;-68
2023/01/06 04:35:33;;;;;;;11.52;7.18;;;;;;;;;;5044982;28;20040;-69
2023/01/06 04:38:02;;;;;;;10.95;6.20;;;;;;;;;;5039873;28;20042;-69
2023/01/06 04:40:29;;;;;;;11.32;7.18;;;;;;;;;;5046096;28;20057;-69
2023/01/06 04:43:04;;;;;;;14.80;7.35;;;;;;;;;;5041154;28;20069;-68
2023/01/06 04:45:31;;;;;;;10.48;6.38;;;;;;;;;;5045205;28;20052;-69
2023/01/06 04:47:58;;;;;;;12.95;6.90;;;;;;;;;;5038348;28;20064;-69
2023/01/06 04:50:25;;;;;;;10.52;6.05;;;;;;;;;;5044374;28;20210;-68
2023/01/06 04:52:51;;;;;;;11.60;6.82;;;;;;;;;;5044587;28;20114;-68
2023/01/06 04:55:18;;;;;;;10.68;6.25;;;;;;;;;;5045731;28;20045;-69
2023/01/06 04:57:45;;;;;;;12.27;6.80;;;;;;;;;;5041659;28;20045;-68
2023/01/06 05:00:12;;;;;;;12.90;6.30;;;;;;;;;;5046576;28;20036;-68
2023/01/06 05:02:38;;;;;;;9.60;5.75;;;;;;;;;;5041834;28;20187;-68
2023/01/06 05:05:05;;;;;;;9.88;6.13;;;;;;;;;;5048689;28;20055;-68
2023/01/06 05:07:32;;;;;;;10.38;6.43;;;;;;;;;;5043501;28;20045;-68
2023/01/06 05:09:58;;;;;;;11.55;6.50;;;;;;;;;;5038768;28;20060;-68
2023/01/06 05:12:25;;;;;;;11.93;5.70;;;;;;;;;;5043965;28;20854;-68
2023/01/06 05:14:52;;;;;;;11.40;6.45;;;;;;;;;;5042531;28;20095;-68
2023/01/06 05:17:18;;;;;;;11.32;6.78;;;;;;;;;;5043469;28;20060;-68
2023/01/06 05:19:45;;;;;;;13.52;12.25;;;;;;;;;;5049752;28;20680;-68
2023/01/06 05:22:12;;;;;;;13.45;8.20;;;;;;;;;;5044374;28;20036;-68
2023/01/06 05:24:38;;;;;;;13.30;6.97;;;;;;;;;;5042323;28;20090;-68
2023/01/06 05:27:05;;;;;;;13.18;7.10;;;;;;;;;;5043404;28;20156;-68
2023/01/06 05:29:32;;;;;;;15.75;7.97;;;;;;;;;;5039745;28;20091;-69
2023/01/06 05:31:58;;;;;;;12.95;7.43;;;;;;;;;;5036208;28;20036;-68
2023/01/06 05:34:25;;;;;;;10.02;6.43;;;;;;;;;;5043902;28;20850;-68
2023/01/06 05:36:51;;;;;;;10.18;6.43;;;;;;;;;;5038365;28;20049;-68
2023/01/06 05:39:18;;;;;;;10.60;7.00;;;;;;;;;;5049616;28;20132;-68
2023/01/06 05:41:45;;;;;;;11.27;7.13;;;;;;;;;;5043128;28;20194;-68
2023/01/06 05:44:11;;;;;;;12.40;7.07;;;;;;;;;;5049212;28;20059;-69
2023/01/06 05:46:38;;;;;;;12.35;6.68;;;;;;;;;;5039961;28;20036;-69
2023/01/06 05:49:05;;;;;;;11.63;6.60;;;;;;;;;;5048246;28;20044;-69
2023/01/06 05:51:31;;;;;;;10.88;6.18;;;;;;;;;;5053862;28;20120;-70
2023/01/06 05:53:58;;;;;;;10.43;6.00;;;;;;;;;;5046554;28;20091;-70
2023/01/06 05:56:24;;;;;;;10.98;5.55;;;;;;;;;;5040092;28;20075;-70
2023/01/06 05:58:52;;;;;;;11.93;5.97;;;;;;;;;;5044846;28;20072;-70
2023/01/06 06:01:20;;;;;;;11.45;5.88;;;;;;;;;;5044588;28;20041;-71
2023/01/06 06:03:47;;;;;;;11.68;6.63;;;;;;;;;;5051024;28;20037;-70
2023/01/06 06:06:14;;;;;;;10.13;6.93;;;;;;;;;;5047291;28;20151;-68
2023/01/06 06:08:40;;;;;;;9.23;5.60;;;;;;;;;;5037441;28;20038;-66
2023/01/06 06:11:09;;;;;;;9.73;5.72;;;;;;;;;;5044169;28;20596;-68
2023/01/06 06:13:36;;;;;;;8.30;6.53;;;;;;;;;;5043564;28;20645;-66
2023/01/06 06:16:11;;;;;;;14.95;7.90;;;;;;;;;;5042040;28;20437;-66
2023/01/06 06:18:41;;;;;;;11.20;6.80;;;;;;;;;;5045434;28;20131;-66
2023/01/06 06:21:09;;;;;;;11.15;8.50;;;;;;;;;;5043419;28;20040;-66
2023/01/06 06:23:35;;;;;;;11.45;7.35;;;;;;;;;;5037829;28;20061;-65
2023/01/06 06:26:02;;;;;;;18.08;8.52;;;;;;;;;;5042333;28;20135;-67
2023/01/06 06:28:29;;;;;;;32.72;16.98;;;;;;;;;;5040471;28;20045;-66
2023/01/06 06:31:02;;;;;;;28.30;13.80;;;;;;;;;;5044581;28;20117;-66
2023/01/06 06:33:29;;;;;;;26.80;16.77;;;;;;;;;;5045772;28;20816;-66
2023/01/06 06:35:56;;;;;;;13.80;9.32;;;;;;;;;;5046106;28;20110;-66
2023/01/06 06:38:22;;;;;;;13.43;7.68;;;;;;;;;;5041740;28;20036;-66
2023/01/06 06:40:49;;;;;;;19.42;9.18;;;;;;;;;;5038924;28;20060;-67
2023/01/06 06:43:16;;;;;;;12.88;7.72;;;;;;;;;;5040164;28;20037;-67
2023/01/06 06:45:43;;;;;;;11.80;7.07;;;;;;;;;;5043192;28;20037;-66
2023/01/06 06:48:10;;;;;;;11.05;7.28;;;;;;;;;;5042852;28;20133;-67
2023/01/06 06:50:36;;;;;;;11.40;6.30;;;;;;;;;;5035858;28;20575;-67
2023/01/06 06:53:05;;;;;;;36.22;15.85;;;;;;;;;;5042171;28;20056;-66
2023/01/06 06:55:32;;;;;;;42.25;14.85;;;;;;;;;;5045407;28;20041;-66
2023/01/06 06:57:59;;;;;;;46.30;17.77;;;;;;;;;;5043095;28;20048;-66
2023/01/06 07:00:25;;;;;;;50.25;16.70;;;;;;;;;;5040912;28;20032;-66
2023/01/06 07:02:52;;;;;;;43.33;14.95;;;;;;;;;;5036583;28;20076;-66
2023/01/06 07:05:18;;;;;;;29.55;12.13;;;;;;;;;;5038882;28;20114;-66
2023/01/06 07:07:45;;;;;;;28.73;14.32;;;;;;;;;;5041320;28;20449;-66
2023/01/06 07:10:15;;;;;;;25.08;10.07;;;;;;;;;;5039042;28;20125;-65
2023/01/06 07:12:42;;;;;;;24.25;9.25;;;;;;;;;;5034321;28;20128;-65
2023/01/06 07:15:09;;;;;;;13.80;8.02;;;;;;;;;;5036891;28;20099;-66
2023/01/06 07:17:36;;;;;;;16.90;8.43;;;;;;;;;;5037062;28;20036;-66
2023/01/06 07:20:02;;;;;;;19.42;8.30;;;;;;;;;;5043210;28;20485;-66
2023/01/06 07:22:29;;;;;;;19.50;8.10;;;;;;;;;;5040577;28;20041;-65
2023/01/06 07:24:56;;;;;;;14.95;8.70;;;;;;;;;;5043369;28;20052;-64
2023/01/06 07:27:22;;;;;;;11.32;6.07;;;;;;;;;;5039606;28;20056;-66
2023/01/06 07:29:49;;;;;;;8.63;5.47;;;;;;;;;;5048468;28;20047;-65
2023/01/06 07:32:15;;;;;;;11.02;6.43;;;;;;;;;;5036863;28;20037;-65
2023/01/06 07:34:42;;;;;;;13.65;6.20;;;;;;;;;;5042878;28;20098;-65
2023/01/06 07:37:09;;;;;;;9.75;5.47;;;;;;;;;;5039471;28;20044;-65
2023/01/06 07:39:35;;;;;;;11.70;9.57;;;;;;;;;;5048065;28;20704;-65
2023/01/06 07:42:02;;;;;;;8.90;5.18;;;;;;;;;;5043062;28;20127;-66
2023/01/06 07:44:28;;;;;;;13.63;11.00;;;;;;;;;;5044789;28;20045;-66
2023/01/06 07:46:55;;;;;;;10.05;4.93;;;;;;;;;;5046192;28;20037;-65
2023/01/06 07:49:21;;;;;;;16.25;10.18;;;;;;;;;;5042569;28;20097;-66
2023/01/06 07:51:48;;;;;;;8.25;5.38;;;;;;;;;;5050472;28;20052;-65
2023/01/06 07:54:15;;;;;;;10.48;5.07;;;;;;;;;;5046072;28;20037;-65
2023/01/06 07:56:42;;;;;;;7.72;3.80;;;;;;;;;;5044357;28;20045;-65
2023/01/06 07:59:09;;;;;;;8.27;4.82;;;;;;;;;;5038823;28;21065;-65
2023/01/06 08:01:36;;;;;;;10.60;3.72;;;;;;;;;;5041821;28;20099;-65
2023/01/06 08:04:03;;;;;;;8.45;4.20;;;;;;;;;;5043000;28;20102;-66
2023/01/06 08:06:29;;;;;;;7.15;2.70;;;;;;;;;;5041410;28;20533;-65
2023/01/06 08:08:56;;;;;;;5.35;3.80;;;;;;;;;;5042797;28;20064;-64
2023/01/06 08:11:23;;;;;;;5.05;3.22;;;;;;;;;;5041085;28;20040;-64
2023/01/06 08:13:49;;;;;;;6.70;3.08;;;;;;;;;;5056108;28;20118;-66
2023/01/06 08:16:16;;;;;;;5.03;2.67;;;;;;;;;;5043565;28;20053;-64
2023/01/06 08:18:42;;;;;;;5.75;2.22;;;;;;;;;;5044297;28;20044;-66
2023/01/06 08:21:09;;;;;;;4.97;4.47;;;;;;;;;;5041759;28;20041;-66
2023/01/06 08:23:36;;;;;;;4.68;3.03;;;;;;;;;;5042505;28;20036;-66
2023/01/06 08:26:07;;;;;;;6.68;1.90;;;;;;;;;;5045376;28;20155;-67
2023/01/06 08:28:34;;;;;;;6.78;3.25;;;;;;;;;;5044924;28;20049;-66
2023/01/06 08:31:01;;;;;;;6.85;2.58;;;;;;;;;;5043876;28;20098;-67
2023/01/06 08:33:28;;;;;;;5.72;3.15;;;;;;;;;;5042623;28;20048;-67
2023/01/06 08:35:58;;;;;;;4.03;1.83;;;;;;;;;;5054473;28;20044;-65
2023/01/06 08:38:25;;;;;;;5.50;2.30;;;;;;;;;;5045238;28;20103;-67
2023/01/06 08:40:52;;;;;;;8.93;3.10;;;;;;;;;;5040923;28;20040;-67
2023/01/06 08:43:19;;;;;;;4.47;2.72;;;;;;;;;;5044186;28;20037;-65
2023/01/06 08:45:46;;;;;;;10.50;2.90;;;;;;;;;;5043614;28;20057;-66
2023/01/06 08:48:13;;;;;;;10.07;3.05;;;;;;;;;;5036159;28;20129;-66
2023/01/06 08:50:40;;;;;;;3.70;1.80;;;;;;;;;;5038296;28;20057;-66
2023/01/06 08:53:07;;;;;;;4.40;2.22;;;;;;;;;;5043739;28;20801;-67
2023/01/06 08:55:37;;;;;;;4.38;2.08;;;;;;;;;;5049718;28;20048;-66
2023/01/06 08:58:03;;;;;;;4.53;3.22;;;;;;;;;;5041551;28;20049;-65
2023/01/06 09:00:30;;;;;;;3.72;1.83;;;;;;;;;;5049506;28;20041;-66
2023/01/06 09:02:57;;;;;;;3.97;2.92;;;;;;;;;;5042265;28;20521;-66
2023/01/06 09:05:23;;;;;;;3.97;1.95;;;;;;;;;;5040711;28;20043;-65
2023/01/06 09:07:50;;;;;;;3.63;2.20;;;;;;;;;;5041215;28;20140;-65
2023/01/06 09:10:18;;;;;;;6.22;2.38;;;;;;;;;;5043782;28;20044;-66
2023/01/06 09:12:44;;;;;;;4.10;2.55;;;;;;;;;;5041225;28;20115;-66
2023/01/06 09:15:11;;;;;;;3.65;2.58;;;;;;;;;;5040876;28;20055;-67
2023/01/06 09:17:38;;;;;;;5.43;2.55;;;;;;;;;;5044519;28;20155;-65
2023/01/06 09:20:05;;;;;;;4.00;2.40;;;;;;;;;;5040449;28;20166;-68
2023/01/06 09:22:31;;;;;;;5.03;2.78;;;;;;;;;;5042318;28;20575;-67
2023/01/06 09:24:58;;;;;;;4.72;1.65;;;;;;;;;;5042815;28;20586;-66
2023/01/06 09:27:24;;;;;;;6.57;2.45;;;;;;;;;;5045345;28;20119;-66
2023/01/06 09:29:51;;;;;;;5.00;1.98;;;;;;;;;;5038698;28;20071;-66
2023/01/06 09:32:18;;;;;;;4.32;2.75;;;;;;;;;;5041696;28;20045;-65
2023/01/06 09:34:44;;;;;;;3.17;1.77;;;;;;;;;;5038396;28;20071;-66
2023/01/06 09:37:11;;;;;;;6.90;2.45;;;;;;;;;;5038385;28;20065;-67
2023/01/06 09:39:38;;;;;;;3.10;1.85;;;;;;;;;;5032747;28;20029;-67
2023/01/06 09:42:14;;;;;;;5.70;2.22;;;;;;;;;;5039055;28;20491;-67
2023/01/06 09:44:59;;;;;;;3.85;2.67;;;;;;;;;;5040975;28;20132;-68
2023/01/06 09:47:36;;;;;;;4.30;2.25;;;;;;;;;;5036569;28;20047;-69
2023/01/06 09:50:08;;;;;;;5.28;2.90;;;;;;;;;;5040687;28;20082;-67
2023/01/06 09:52:40;;;;;;;6.00;3.17;;;;;;;;;;5033573;28;20144;-65
2023/01/06 09:55:12;;;;;;;7.97;3.55;;;;;;;;;;5039396;28;20710;-65
2023/01/06 09:57:45;;;;;;;6.15;3.40;;;;;;;;;;5036987;28;20040;-67
2023/01/06 10:00:30;;;;;;;7.38;6.03;;;;;;;;;;5039750;28;20048;-66
2023/01/06 10:02:57;;;;;;;7.78;2.05;;;;;;;;;;5036580;28;20044;-65
2023/01/06 10:05:39;;;;;;;6.88;4.07;;;;;;;;;;5040608;28;20041;-65
2023/01/06 10:08:16;;;;;;;4.80;2.53;;;;;;;;;;5037806;28;20789;-66
2023/01/06 10:11:03;;;;;;;4.20;2.58;;;;;;;;;;5045338;28;20078;-66
2023/01/06 10:13:42;;;;;;;5.00;4.57;;;;;;;;;;5036460;28;20136;-65
2023/01/06 10:16:15;;;;;;;5.90;3.95;;;;;;;;;;5036175;28;20882;-67
2023/01/06 10:18:53;;;;;;;5.40;4.15;;;;;;;;;;5036610;28;20036;-67
2023/01/06 10:21:26;;;;;;;4.38;2.17;;;;;;;;;;5037422;28;20774;-67
2023/01/06 10:24:07;;;;;;;3.03;1.63;;;;;;;;;;5035126;28;20051;-64
2023/01/06 10:26:47;;;;;;;3.72;2.42;;;;;;;;;;5039327;28;20045;-66
2023/01/06 10:29:14;;;;;;;;;;;;;;;;;;5041545;28;20132;-65
2023/01/06 10:31:42;;;;;;;3.50;1.45;;;;;;;;;;5042015;28;19990;-66
2023/01/06 10:34:09;;;;;;;;;;;;;;;;;;5036326;28;20037;-65
2023/01/06 10:36:41;;;;;;;4.90;2.47;;;;;;;;;;5040643;28;19929;-65
2023/01/06 10:39:19;;;;;;;6.93;4.60;;;;;;;;;;5036431;28;20041;-69
2023/01/06 10:42:54;;;;;;;3.60;3.22;;;;;;;;;;5042564;28;20086;-68
2023/01/06 10:44:41;;;;;;;4.03;2.17;;;;;;;;;;5035588;28;20049;-69
2023/01/06 10:47:13;;;;;;;4.28;2.13;;;;;;;;;;5040767;28;20033;-66
2023/01/06 10:49:40;;;;;;;4.82;2.85;;;;;;;;;;5037702;28;20052;-65
2023/01/06 10:52:08;;;;;;;4.00;3.40;;;;;;;;;;5040219;28;20076;-72
2023/01/06 10:54:35;;;;;;;3.60;2.25;;;;;;;;;;5039971;28;20138;-66
2023/01/06 10:57:03;;;;;;;4.38;2.45;;;;;;;;;;5036985;28;20122;-66
2023/01/06 10:59:30;;;;;;;5.70;4.20;;;;;;;;;;5041369;28;20044;-65
2023/01/06 11:01:56;;;;;;;3.13;1.90;;;;;;;;;;5037907;28;20041;-66
2023/01/06 11:04:25;;;;;;;3.53;2.70;;;;;;;;;;5043282;28;20847;-66
2023/01/06 11:06:57;;;;;;;5.22;4.70;;;;;;;;;;5038246;28;20488;-65
2023/01/06 11:09:31;;;;;;;3.55;2.22;;;;;;;;;;5037086;28;20037;-67
2023/01/06 11:12:00;;;;;;;4.93;4.50;;;;;;;;;;5041265;28;20041;-67
2023/01/06 11:14:26;;;;;;;;;;;;;;;;;;5042312;28;20700;-66
2023/01/06 11:16:55;;;;;;;5.32;4.13;;;;;;;;;;5036785;28;20321;-68
2023/01/06 11:19:25;;;;;;;6.50;2.40;;;;;;;;;;5036352;28;20138;-64
2023/01/06 11:21:51;;;;;;;3.63;2.33;;;;;;;;;;5036830;28;20045;-66
2023/01/06 11:24:20;;;;;;;7.13;6.53;;;;;;;;;;5037981;28;20048;-67
2023/01/06 11:26:46;;;;;;;;;;;;;;;;;;5037285;28;20099;-67
2023/01/06 11:29:18;;;;;;;3.42;2.55;;;;;;;;;;5038546;28;19929;-68
2023/01/06 11:31:47;;;;;;;4.03;2.22;;;;;;;;;;5043520;28;20052;-68
2023/01/06 11:34:19;;;;;;;3.95;2.25;;;;;;;;;;5040123;28;20059;-67
2023/01/06 11:36:46;;;;;;;4.43;2.55;;;;;;;;;;5043679;28;20049;-67
2023/01/06 11:39:16;;;;;;;5.60;5.07;;;;;;;;;;5042875;28;20115;-68
2023/01/06 11:41:45;;;;;;;7.97;3.13;;;;;;;;;;5048854;28;20044;-66
2023/01/06 11:44:11;;;;;;;4.18;2.67;;;;;;;;;;5042401;28;20064;-66
2023/01/06 11:46:39;;;;;;;3.75;2.92;;;;;;;;;;5048910;28;21368;-68
2023/01/06 11:49:09;;;;;;;8.30;7.10;;;;;;;;;;5045430;28;20052;-65
2023/01/06 11:51:42;;;;;;;5.20;4.80;;;;;;;;;;5048652;28;20077;-65
2023/01/06 11:54:21;;;;;;;4.88;4.22;;;;;;;;;;5039417;28;20041;-64
2023/01/06 11:56:58;;;;;;;5.45;4.90;;;;;;;;;;5046237;28;20136;-67
2023/01/06 11:59:30;;;;;;;3.50;2.00;;;;;;;;;;5054548;28;20041;-68
2023/01/06 12:01:58;;;;;;;5.72;5.20;;;;;;;;;;5042300;28;20045;-66
2023/01/06 12:04:34;;;;;;;5.43;4.00;;;;;;;;;;5044257;28;20041;-68
2023/01/06 12:07:09;;;;;;;6.00;5.50;;;;;;;;;;5042833;28;20049;-66
2023/01/06 12:09:37;;;;;;;4.57;2.38;;;;;;;;;;5039587;28;20040;-67
2023/01/06 12:12:08;;;;;;;5.70;2.00;;;;;;;;;;5046957;28;20589;-68
2023/01/06 12:14:36;;;;;;;4.15;3.85;;;;;;;;;;5052369;28;20065;-69
2023/01/06 12:17:08;;;;;;;4.22;3.80;;;;;;;;;;5038646;28;20591;-66
2023/01/06 12:19:39;;;;;;;5.28;2.53;;;;;;;;;;5044098;28;20037;-67
2023/01/06 12:22:16;;;;;;;5.50;5.00;;;;;;;;;;5039674;28;20594;-66
2023/01/06 12:24:43;;;;;;;6.78;5.80;;;;;;;;;;5038869;28;20363;-67
2023/01/06 12:27:15;;;;;;;6.22;3.45;;;;;;;;;;5042853;28;20044;-68
2023/01/06 12:29:42;;;;;;;4.18;3.08;;;;;;;;;;5037745;28;20045;-67
2023/01/06 12:32:11;;;;;;;5.95;5.35;;;;;;;;;;5034801;28;20067;-65
2023/01/06 12:34:44;;;;;;;4.95;2.58;;;;;;;;;;5042626;28;20554;-66
2023/01/06 12:37:26;;;;;;;4.47;3.22;;;;;;;;;;5034286;28;20079;-66
2023/01/06 12:40:12;;;;;;;4.38;2.50;;;;;;;;;;5044894;28;20057;-66
2023/01/06 12:42:48;;;;;;;5.68;2.75;;;;;;;;;;5042084;28;20705;-66
2023/01/06 12:45:18;;;;;;;4.07;2.08;;;;;;;;;;5043281;28;20521;-66
2023/01/06 12:47:55;;;;;;;6.28;3.85;;;;;;;;;;5039899;28;20764;-67
2023/01/06 12:50:22;;;;;;;5.13;4.63;;;;;;;;;;5046580;28;20051;-68
2023/01/06 12:52:51;;;;;;;5.07;4.68;;;;;;;;;;5039714;28;20132;-67
2023/01/06 12:55:20;;;;;;;4.38;2.53;;;;;;;;;;5042473;28;20657;-67
2023/01/06 12:57:46;;;;;;;2.78;1.70;;;;;;;;;;5038142;28;20077;-69
2023/01/06 13:00:31;;;;;;;3.28;2.63;;;;;;;;;;5042749;28;20065;-65
2023/01/06 13:03:06;;;;;;;3.60;2.38;;;;;;;;;;5043046;28;20080;-67
2023/01/06 13:05:52;;;;;;;4.20;2.92;;;;;;;;;;5054577;28;20052;-65
2023/01/06 13:08:25;;;;;;;4.90;2.67;;;;;;;;;;5038464;28;20103;-67
2023/01/06 13:11:01;;;;;;;4.28;2.38;;;;;;;;;;5046966;28;20536;-68
2023/01/06 13:13:28;;;;;;;3.72;3.13;;;;;;;;;;5041734;28;20041;-65
2023/01/06 13:15:57;;;;;;;6.43;3.47;;;;;;;;;;5045846;28;20041;-65
2023/01/06 13:18:27;;;;;;;5.88;3.25;;;;;;;;;;5040496;28;20884;-67
2023/01/06 13:20:58;;;;;;;15.45;5.90;;;;;;;;;;5041933;28;20041;-65
2023/01/06 13:23:57;;;;;;;15.38;5.07;;;;;;;;;;5037633;28;20622;-67
2023/01/06 13:26:29;;;;;;;8.32;7.53;;;;;;;;;;5035693;28;20193;-67
2023/01/06 13:29:15;;;;;;;8.15;6.00;;;;;;;;;;5040339;28;20060;-65
2023/01/06 13:31:59;;;;;;;5.15;4.65;;;;;;;;;;5039799;28;20073;-67
2023/01/06 13:34:26;;;;;;;5.70;4.95;;;;;;;;;;5042732;28;21013;-64
2023/01/06 13:36:55;;;;;;;3.92;3.28;;;;;;;;;;5042146;28;20049;-65
2023/01/06 13:39:25;;;;;;;9.35;3.80;;;;;;;;;;5042575;28;20094;-67
2023/01/06 13:41:54;;;;;;;6.05;3.95;;;;;;;;;;5037472;28;20049;-66
2023/01/06 13:44:24;;;;;;;4.18;2.25;;;;;;;;;;5047799;28;20753;-67
2023/01/06 13:46:52;;;;;;;5.32;3.35;;;;;;;;;;5039533;28;20612;-66
2023/01/06 13:49:19;;;;;;;8.20;6.57;;;;;;;;;;5052734;28;20044;-66
2023/01/06 13:51:46;;;;;;;5.28;4.00;;;;;;;;;;5054301;28;20048;-65
2023/01/06 13:54:41;;;;;;;7.45;6.70;;;;;;;;;;5047443;28;20497;-65
2023/01/06 13:57:20;;;;;;;6.47;3.85;;;;;;;;;;5004738;28;20104;-65
2023/01/06 13:59:50;;;;;;;5.60;2.85;;;;;;;;;;5041544;28;20049;-65
2023/01/06 14:02:41;;;;;;;6.97;3.72;;;;;;;;;;5050865;28;20133;-66
2023/01/06 14:05:20;;;;;;;8.75;6.97;;;;;;;;;;5042411;28;20114;-67
2023/01/06 14:07:58;;;;;;;8.30;5.47;;;;;;;;;;5039171;28;20123;-65
2023/01/06 14:10:34;;;;;;;10.18;3.65;;;;;;;;;;5041755;28;20050;-65
2023/01/06 14:13:02;;;;;;;12.13;5.57;;;;;;;;;;5045424;28;20049;-66
2023/01/06 14:15:30;;;;;;;14.45;6.30;;;;;;;;;;5041863;28;20159;-67
2023/01/06 14:17:57;;;;;;;7.07;4.82;;;;;;;;;;5031414;28;20119;-65
2023/01/06 14:20:34;;;;;;;4.93;3.80;;;;;;;;;;5037336;28;20634;-66
2023/01/06 14:23:10;;;;;;;6.68;3.60;;;;;;;;;;5036331;28;20115;-65
2023/01/06 14:25:39;;;;;;;6.72;4.38;;;;;;;;;;5039043;28;20466;-65
2023/01/06 14:28:07;;;;;;;8.07;2.50;;;;;;;;;;5040971;28;20052;-64
2023/01/06 14:30:34;;;;;;;6.30;2.95;;;;;;;;;;5045424;28;20727;-65
2023/01/06 14:33:20;;;;;;;6.18;2.45;;;;;;;;;;5032609;28;20044;-66
2023/01/06 14:35:47;;;;;;;9.82;3.90;;;;;;;;;;5040462;28;20140;-65
2023/01/06 14:38:28;;;;;;;6.20;3.58;;;;;;;;;;5039566;28;20049;-64
2023/01/06 14:40:57;;;;;;;5.95;2.85;;;;;;;;;;5034126;28;20041;-65
2023/01/06 14:44:02;;;;;;;5.63;3.50;;;;;;;;;;5046608;28;20045;-66
2023/01/06 14:46:31;;;;;;;4.38;3.13;;;;;;;;;;5034410;28;20461;-66
2023/01/06 14:48:59;;;;;;;7.93;3.85;;;;;;;;;;5034122;28;20092;-66
2023/01/06 14:51:27;;;;;;;7.85;2.88;;;;;;;;;;5034763;28;20045;-66
2023/01/06 14:54:03;;;;;;;5.78;4.50;;;;;;;;;;5048551;28;20041;-66
2023/01/06 14:56:31;;;;;;;6.50;4.93;;;;;;;;;;5036440;28;20041;-67
2023/01/06 14:59:02;;;;;;;5.38;2.35;;;;;;;;;;5043944;28;20053;-66